Time;durP1;ratioP1;P1;durP2;ratioP2;P2;SDS_P1;SDS_P2;PMS_P1;PMS_P2;Temp;Humidity;BMP_temperature;BMP_pressure;BME280_temperature;BME280_humidity;BME280_pressure;Samples;Min_cycle;Max_cycle;Signal;HPM_P1;HPM_P2
2023/08/19 00:00:21;;;;;;;;;;;23.10;96.50;;;;;;5110288;28;19919;-68
2023/08/19 00:02:46;;;;;;;;;;;23.10;96.60;;;;;;5128219;27;19915;-68
2023/08/19 00:05:12;;;;;;;;;;;23.00;96.50;;;;;;5118870;27;19922;-68
2023/08/19 00:07:37;;;;;;;;;;;23.10;96.60;;;;;;5109873;28;19981;-68
2023/08/19 00:10:03;;;;;;;;;;;23.00;96.60;;;;;;5110164;28;19996;-68
2023/08/19 00:12:29;;;;;;;;;;;23.00;96.50;;;;;;5110151;28;19912;-68
2023/08/19 00:14:55;;;;;;;;;;;23.00;96.60;;;;;;5112976;27;19970;-68
2023/08/19 00:17:24;;;;;;;;;;;22.90;96.60;;;;;;5130291;27;19911;-68
2023/08/19 00:19:50;;;;;;;;;;;22.90;96.60;;;;;;5130491;27;20042;-68
2023/08/19 00:22:17;;;;;;;;;;;22.90;96.60;;;;;;5130827;27;19954;-68
2023/08/19 00:24:43;;;;;;;;;;;22.90;96.70;;;;;;5130350;27;19919;-68
2023/08/19 00:27:09;;;;;;;;;;;22.90;96.70;;;;;;5130366;27;19920;-68
2023/08/19 00:29:34;;;;;;;;;;;22.80;96.60;;;;;;5127216;27;20305;-68
2023/08/19 00:32:00;;;;;;;;;;;22.80;96.70;;;;;;5110569;27;19916;-68
2023/08/19 00:34:25;;;;;;;;;;;22.80;97.00;;;;;;5109822;27;19916;-68
2023/08/19 00:36:51;;;;;;;;;;;22.80;96.70;;;;;;5107867;28;19908;-68
2023/08/19 00:39:16;;;;;;;;;;;22.80;96.80;;;;;;5109846;28;20276;-68
2023/08/19 00:41:43;;;;;;;;;;;22.80;96.80;;;;;;5116121;27;19907;-68
2023/08/19 00:44:09;;;;;;;;;;;22.70;96.80;;;;;;5130172;27;19911;-68
2023/08/19 00:46:35;;;;;;;;;;;22.70;96.70;;;;;;5130074;27;19911;-68
2023/08/19 00:49:00;;;;;;;;;;;22.70;96.80;;;;;;5114399;27;20230;-68
2023/08/19 00:51:26;;;;;;;;;;;22.70;96.80;;;;;;5109548;28;19958;-68
2023/08/19 00:53:52;;;;;;;;;;;22.70;96.80;;;;;;5109099;28;19980;-68
2023/08/19 00:56:18;;;;;;;;;;;22.70;96.90;;;;;;5109126;28;20056;-68
2023/08/19 00:58:44;;;;;;;;;;;22.70;97.00;;;;;;5109723;28;19912;-68
2023/08/19 01:01:10;;;;;;;;;;;22.60;96.90;;;;;;5109211;28;19919;-68
2023/08/19 01:03:36;;;;;;;;;;;22.60;96.90;;;;;;5109030;28;19911;-68
2023/08/19 01:06:17;;;;;;;;;;;22.60;96.80;;;;;;5109221;28;19919;-68
2023/08/19 01:08:52;;;;;;;;;;;22.60;96.80;;;;;;5108970;28;20002;-68
2023/08/19 01:11:36;;;;;;;;;;;22.50;96.80;;;;;;5109011;28;20003;-68
2023/08/19 01:14:08;;;;;;;;;;;22.50;96.80;;;;;;5109026;28;19915;-68
2023/08/19 01:16:34;;;;;;;;;;;22.50;96.80;;;;;;5109006;28;20393;-68
2023/08/19 01:19:00;;;;;;;;;;;22.50;96.90;;;;;;5108844;28;19918;-68
2023/08/19 01:21:26;;;;;;;;;;;22.50;96.90;;;;;;5120848;27;19990;-68
2023/08/19 01:23:54;;;;;;;;;;;22.50;96.90;;;;;;5129146;27;20013;-68
2023/08/19 01:26:19;;;;;;;;;;;22.50;97.00;;;;;;5128941;27;19923;-68
2023/08/19 01:28:46;;;;;;;;;;;22.40;96.90;;;;;;5129321;27;19928;-68
2023/08/19 01:31:11;;;;;;;;;;;22.40;96.90;;;;;;5112148;27;19918;-68
2023/08/19 01:33:37;;;;;;;;;;;22.40;96.90;;;;;;5108283;28;19907;-68
2023/08/19 01:36:26;;;;;;;;;;;22.40;96.90;;;;;;5106923;28;20387;-68
2023/08/19 01:38:51;;;;;;;;;;;22.40;97.00;;;;;;5087916;28;19923;-68
2023/08/19 01:41:19;;;;;;;;;;;22.40;96.90;;;;;;5094143;28;19912;-68
2023/08/19 01:43:45;;;;;;;;;;;22.30;96.90;;;;;;5108228;28;19998;-68
2023/08/19 01:46:10;;;;;;;;;;;22.30;97.00;;;;;;5108506;28;20013;-68
2023/08/19 01:48:36;;;;;;;;;;;22.30;97.10;;;;;;5109321;27;19955;-68
2023/08/19 01:51:01;;;;;;;;;;;22.30;97.10;;;;;;5108338;28;20376;-68
2023/08/19 01:53:27;;;;;;;;;;;22.30;97.10;;;;;;5108206;28;20030;-68
2023/08/19 01:55:52;;;;;;;;;;;22.30;97.20;;;;;;5107912;28;20368;-68
2023/08/19 01:58:18;;;;;;;;;;;22.20;97.10;;;;;;5108281;28;19919;-68
2023/08/19 02:00:44;;;;;;;;;;;22.20;97.10;;;;;;5108365;28;20000;-68
2023/08/19 02:03:10;;;;;;;;;;;22.20;97.10;;;;;;5124996;27;20043;-68
2023/08/19 02:05:35;;;;;;;;;;;22.20;97.20;;;;;;5110517;27;20384;-68
2023/08/19 02:08:00;;;;;;;;;;;22.20;97.00;;;;;;5108008;28;20002;-68
2023/08/19 02:10:26;;;;;;;;;;;22.10;97.00;;;;;;5112149;28;20529;-68
2023/08/19 02:12:51;;;;;;;;;;;22.10;97.20;;;;;;5112085;28;19908;-68
2023/08/19 02:15:17;;;;;;;;;;;22.10;97.20;;;;;;5112412;28;19966;-68
2023/08/19 02:17:43;;;;;;;;;;;22.10;97.20;;;;;;5114886;27;19920;-68
2023/08/19 02:20:09;;;;;;;;;;;22.10;97.10;;;;;;5132514;27;19991;-68
2023/08/19 02:22:34;;;;;;;;;;;22.10;97.20;;;;;;5132975;27;19953;-68
2023/08/19 02:25:00;;;;;;;;;;;22.00;97.20;;;;;;5132512;27;19912;-68
2023/08/19 02:27:25;;;;;;;;;;;22.00;97.20;;;;;;5132587;27;20283;-68
2023/08/19 02:29:51;;;;;;;;;;;22.00;97.20;;;;;;5122334;27;19912;-68
2023/08/19 02:32:16;;;;;;;;;;;22.00;97.10;;;;;;5112021;28;20327;-68
2023/08/19 02:34:42;;;;;;;;;;;22.00;97.30;;;;;;5116682;27;19915;-68
2023/08/19 02:37:09;;;;;;;;;;;21.90;97.30;;;;;;5122146;27;19929;-68
2023/08/19 02:39:34;;;;;;;;;;;21.90;97.30;;;;;;5115508;27;19916;-68
2023/08/19 02:42:00;;;;;;;;;;;21.90;97.30;;;;;;5111867;27;19969;-68
2023/08/19 02:44:25;;;;;;;;;;;21.90;97.30;;;;;;5110216;28;19915;-68
2023/08/19 02:46:51;;;;;;;;;;;21.90;97.40;;;;;;5111581;28;19912;-68
2023/08/19 02:49:16;;;;;;;;;;;21.90;97.40;;;;;;5111545;28;19918;-68
2023/08/19 02:51:42;;;;;;;;;;;21.80;97.40;;;;;;5113364;27;19992;-68
2023/08/19 02:54:07;;;;;;;;;;;21.80;97.40;;;;;;5111849;28;19912;-68
2023/08/19 02:56:33;;;;;;;;;;;21.80;97.30;;;;;;5109858;28;19950;-68
2023/08/19 02:58:59;;;;;;;;;;;21.80;97.30;;;;;;5111549;28;19912;-68
2023/08/19 03:01:24;;;;;;;;;;;21.80;97.30;;;;;;5111387;28;19921;-68
2023/08/19 03:03:50;;;;;;;;;;;21.80;97.10;;;;;;5111577;27;19957;-68
2023/08/19 03:06:15;;;;;;;;;;;21.80;97.30;;;;;;5100167;28;19918;-68
2023/08/19 03:08:41;;;;;;;;;;;21.80;97.40;;;;;;5111919;27;19923;-68
2023/08/19 03:11:06;;;;;;;;;;;21.70;97.30;;;;;;5111310;27;19972;-68
2023/08/19 03:13:32;;;;;;;;;;;21.70;97.40;;;;;;5111010;28;19911;-68
2023/08/19 03:15:58;;;;;;;;;;;21.70;97.20;;;;;;5110891;27;19939;-68
2023/08/19 03:18:24;;;;;;;;;;;21.70;97.40;;;;;;5111027;28;19919;-68
2023/08/19 03:20:56;;;;;;;;;;;21.70;97.50;;;;;;5109660;28;19912;-68
2023/08/19 03:23:22;;;;;;;;;;;21.70;97.50;;;;;;5113363;27;19945;-68
2023/08/19 03:25:50;;;;;;;;;;;21.70;97.40;;;;;;5131183;27;19915;-68
2023/08/19 03:28:16;;;;;;;;;;;21.60;97.20;;;;;;5131563;27;19937;-68
2023/08/19 03:30:41;;;;;;;;;;;21.60;97.50;;;;;;5117518;27;19920;-68
2023/08/19 03:33:07;;;;;;;;;;;21.60;97.50;;;;;;5110669;28;20337;-68
2023/08/19 03:35:35;;;;;;;;;;;21.60;97.30;;;;;;5110359;28;19911;-68
2023/08/19 03:38:04;;;;;;;;;;;21.60;97.20;;;;;;5110753;27;20384;-68
2023/08/19 03:40:30;;;;;;;;;;;21.60;97.40;;;;;;5111115;27;19923;-68
2023/08/19 03:42:55;;;;;;;;;;;21.60;97.50;;;;;;5110550;28;19912;-68
2023/08/19 03:45:21;;;;;;;;;;;21.60;97.40;;;;;;5110378;28;19914;-68
2023/08/19 03:47:46;;;;;;;;;;;21.50;97.50;;;;;;5110599;28;19951;-68
2023/08/19 03:50:12;;;;;;;;;;;21.50;97.30;;;;;;5110494;28;19912;-68
2023/08/19 03:52:37;;;;;;;;;;;21.50;97.20;;;;;;5110886;28;19912;-68
2023/08/19 03:55:03;;;;;;;;;;;21.50;97.40;;;;;;5110214;28;19950;-68
2023/08/19 03:57:29;;;;;;;;;;;21.50;97.40;;;;;;5111823;27;19916;-68
2023/08/19 03:59:54;;;;;;;;;;;21.50;97.30;;;;;;5110412;28;20471;-68
2023/08/19 04:02:20;;;;;;;;;;;21.50;97.30;;;;;;5110319;28;19911;-68
2023/08/19 04:05:01;;;;;;;;;;;21.50;97.40;;;;;;5105606;28;19958;-67
2023/08/19 04:07:26;;;;;;;;;;;21.50;97.40;;;;;;5109702;28;19915;-68
2023/08/19 04:09:55;;;;;;;;;;;21.50;97.40;;;;;;5110181;28;20550;-68
2023/08/19 04:12:21;;;;;;;;;;;21.40;97.20;;;;;;5111455;27;20392;-68
2023/08/19 04:14:47;;;;;;;;;;;21.50;97.40;;;;;;5109952;28;19919;-68
2023/08/19 04:17:12;;;;;;;;;;;21.40;97.40;;;;;;5108404;28;19915;-68
2023/08/19 04:19:38;;;;;;;;;;;21.40;97.30;;;;;;5109816;28;19912;-68
2023/08/19 04:22:03;;;;;;;;;;;21.40;97.50;;;;;;5110452;28;19919;-68
2023/08/19 04:24:29;;;;;;;;;;;21.40;97.40;;;;;;5109668;28;20344;-68
2023/08/19 04:26:54;;;;;;;;;;;21.40;97.50;;;;;;5115992;27;19920;-68
2023/08/19 04:29:20;;;;;;;;;;;21.40;97.40;;;;;;5128925;27;19968;-68
2023/08/19 04:31:45;;;;;;;;;;;21.40;97.50;;;;;;5104608;28;19947;-68
2023/08/19 04:34:11;;;;;;;;;;;21.40;97.50;;;;;;5110168;27;19942;-68
2023/08/19 04:36:37;;;;;;;;;;;21.40;97.40;;;;;;5120403;27;20298;-68
2023/08/19 04:39:05;;;;;;;;;;;21.40;97.40;;;;;;5109220;28;19919;-68
2023/08/19 04:41:30;;;;;;;;;;;21.40;97.40;;;;;;5114741;27;19955;-68
2023/08/19 04:43:57;;;;;;;;;;;21.40;97.50;;;;;;5128466;27;20587;-68
2023/08/19 04:46:23;;;;;;;;;;;21.40;97.50;;;;;;5129681;27;20037;-68
2023/08/19 04:48:48;;;;;;;;;;;21.40;97.50;;;;;;5129810;27;20352;-68
2023/08/19 04:51:14;;;;;;;;;;;21.40;97.40;;;;;;5129796;27;19920;-68
2023/08/19 04:53:39;;;;;;;;;;;21.40;97.30;;;;;;5129803;27;20006;-68
2023/08/19 04:56:06;;;;;;;;;;;21.30;97.40;;;;;;5108371;27;19919;-68
2023/08/19 04:58:31;;;;;;;;;;;21.40;97.50;;;;;;5108889;28;19966;-68
2023/08/19 05:00:56;;;;;;;;;;;21.30;97.30;;;;;;5109325;28;19947;-68
2023/08/19 05:03:22;;;;;;;;;;;21.40;97.30;;;;;;5108269;28;20018;-68
2023/08/19 05:05:48;;;;;;;;;;;21.40;97.30;;;;;;5097763;28;19912;-68
2023/08/19 05:08:14;;;;;;;;;;;21.40;97.40;;;;;;5109203;28;19912;-68
2023/08/19 05:10:39;;;;;;;;;;;21.40;97.40;;;;;;5110110;27;19931;-68
2023/08/19 05:13:05;;;;;;;;;;;21.40;97.40;;;;;;5109096;28;19916;-68
2023/08/19 05:15:30;;;;;;;;;;;21.40;97.30;;;;;;5108587;28;20046;-68
2023/08/19 05:17:56;;;;;;;;;;;21.40;97.40;;;;;;5108871;28;20250;-68
2023/08/19 05:20:22;;;;;;;;;;;21.40;97.40;;;;;;5108719;28;19912;-68
2023/08/19 05:22:47;;;;;;;;;;;21.40;97.30;;;;;;5107005;28;19911;-68
2023/08/19 05:25:13;;;;;;;;;;;21.40;97.30;;;;;;5108782;28;19933;-68
2023/08/19 05:27:38;;;;;;;;;;;21.40;97.30;;;;;;5109652;27;20500;-68
2023/08/19 05:30:05;;;;;;;;;;;21.40;97.40;;;;;;5105623;28;20430;-68
2023/08/19 05:32:31;;;;;;;;;;;21.40;97.30;;;;;;5108424;28;20338;-68
2023/08/19 05:34:56;;;;;;;;;;;21.40;97.40;;;;;;5108202;28;19912;-68
2023/08/19 05:37:22;;;;;;;;;;;21.50;97.30;;;;;;5108459;28;20010;-68
2023/08/19 05:39:47;;;;;;;;;;;21.50;97.40;;;;;;5108278;28;19916;-68
2023/08/19 05:42:13;;;;;;;;;;;21.50;97.30;;;;;;5094617;28;19920;-68
2023/08/19 05:44:38;;;;;;;;;;;21.50;97.20;;;;;;5109005;27;19915;-68
2023/08/19 05:47:04;;;;;;;;;;;21.50;97.20;;;;;;5128778;27;19911;-67
2023/08/19 05:49:29;;;;;;;;;;;21.60;97.30;;;;;;5128753;27;19916;-68
2023/08/19 05:51:55;;;;;;;;;;;21.60;97.20;;;;;;5128882;27;20294;-68
2023/08/19 05:54:20;;;;;;;;;;;21.60;97.20;;;;;;5128881;27;20472;-68
2023/08/19 05:56:46;;;;;;;;;;;21.60;97.20;;;;;;5128949;27;19907;-68
2023/08/19 05:59:11;;;;;;;;;;;21.60;97.10;;;;;;5128950;27;19911;-68
2023/08/19 06:01:37;;;;;;;;;;;21.60;97.20;;;;;;5110736;27;19922;-68
2023/08/19 06:04:03;;;;;;;;;;;21.70;97.10;;;;;;5107680;28;19946;-68
2023/08/19 06:06:28;;;;;;;;;;;21.70;97.10;;;;;;5107594;28;19939;-68
2023/08/19 06:08:54;;;;;;;;;;;21.70;97.00;;;;;;5107862;28;19972;-68
2023/08/19 06:11:19;;;;;;;;;;;21.70;97.00;;;;;;5106567;28;20015;-68
2023/08/19 06:13:44;;;;;;;;;;;21.70;97.00;;;;;;5108333;28;19919;-67
2023/08/19 06:16:10;;;;;;;;;;;21.70;97.00;;;;;;5109056;28;19976;-68
2023/08/19 06:18:36;;;;;;;;;;;21.70;97.00;;;;;;5107857;28;20618;-68
2023/08/19 06:21:02;;;;;;;;;;;21.70;97.00;;;;;;5106575;28;19912;-68
2023/08/19 06:23:28;;;;;;;;;;;21.80;97.00;;;;;;5106889;28;20809;-68
2023/08/19 06:25:53;;;;;;;;;;;21.80;97.00;;;;;;5106666;28;19923;-68
2023/08/19 06:28:19;;;;;;;;;;;21.80;96.90;;;;;;5106833;28;19911;-68
2023/08/19 06:30:45;;;;;;;;;;;21.80;96.90;;;;;;5101938;28;19943;-67
2023/08/19 06:33:11;;;;;;;;;;;21.80;96.90;;;;;;5116201;28;19922;-68
2023/08/19 06:35:37;;;;;;;;;;;21.90;96.90;;;;;;5112923;27;19916;-68
2023/08/19 06:38:05;;;;;;;;;;;21.90;96.80;;;;;;5113107;28;20003;-68
2023/08/19 06:40:34;;;;;;;;;;;21.90;96.80;;;;;;5127991;27;20457;-68
2023/08/19 06:42:59;;;;;;;;;;;21.90;96.90;;;;;;5087829;27;19912;-68
2023/08/19 06:45:25;;;;;;;;;;;21.90;96.90;;;;;;5087384;28;19935;-68
2023/08/19 06:47:52;;;;;;;;;;;22.00;96.90;;;;;;5087720;28;20250;-68
2023/08/19 06:50:18;;;;;;;;;;;22.00;96.80;;;;;;5119351;28;19930;-68
2023/08/19 06:52:43;;;;;;;;;;;22.00;96.80;;;;;;5128279;27;19911;-68
2023/08/19 06:55:09;;;;;;;;;;;22.10;96.90;;;;;;5129679;27;20277;-68
2023/08/19 06:57:36;;;;;;;;;;;22.10;96.70;;;;;;5131836;27;19907;-68
2023/08/19 07:00:11;;;;;;;;;;;22.20;96.70;;;;;;5130657;27;19911;-68
2023/08/19 07:02:37;;;;;;;;;;;22.20;96.60;;;;;;5132245;27;20006;-68
2023/08/19 07:05:22;;;;;;;;;;;22.20;96.70;;;;;;5123427;27;19912;-68
2023/08/19 07:07:51;;;;;;;;;;;22.30;96.60;;;;;;5112438;27;19916;-68
2023/08/19 07:10:18;;;;;;;;;;;22.30;96.60;;;;;;5111075;28;19936;-68
2023/08/19 07:12:44;;;;;;;;;;;22.30;96.60;;;;;;5111353;28;19994;-68
2023/08/19 07:15:12;;;;;;;;;;;22.40;96.60;;;;;;5109864;28;19949;-68
2023/08/19 07:17:42;;;;;;;;;;;22.40;96.50;;;;;;5111274;28;19953;-68
2023/08/19 07:20:09;;;;;;;;;;;22.40;96.50;;;;;;5109814;28;20011;-68
2023/08/19 07:22:36;;;;;;;;;;;22.40;96.50;;;;;;5112056;27;19951;-68
2023/08/19 07:25:03;;;;;;;;;;;22.40;96.50;;;;;;5110753;28;19915;-68
2023/08/19 07:27:29;;;;;;;;;;;22.50;96.50;;;;;;5110346;28;19923;-68
2023/08/19 07:29:55;;;;;;;;;;;22.50;96.40;;;;;;5105802;28;20329;-68
2023/08/19 07:32:21;;;;;;;;;;;22.50;96.40;;;;;;5110832;28;19964;-68
2023/08/19 07:34:46;;;;;;;;;;;22.60;96.40;;;;;;5110522;28;19990;-68
2023/08/19 07:37:12;;;;;;;;;;;22.60;96.40;;;;;;5110585;28;20007;-68
2023/08/19 07:39:38;;;;;;;;;;;22.60;96.30;;;;;;5127257;27;19915;-68
2023/08/19 07:42:03;;;;;;;;;;;22.60;96.30;;;;;;5106140;27;19917;-68
2023/08/19 07:44:29;;;;;;;;;;;22.70;96.30;;;;;;5089988;28;20007;-68
2023/08/19 07:46:55;;;;;;;;;;;22.70;96.30;;;;;;5089270;28;19940;-68
2023/08/19 07:49:20;;;;;;;;;;;22.70;96.30;;;;;;5089324;28;19916;-68
2023/08/19 07:51:46;;;;;;;;;;;22.70;96.20;;;;;;5089916;28;19912;-68
2023/08/19 07:54:11;;;;;;;;;;;22.80;96.20;;;;;;5092677;27;19912;-68
2023/08/19 07:56:37;;;;;;;;;;;22.70;96.20;;;;;;5109943;27;19920;-68
2023/08/19 07:59:03;;;;;;;;;;;22.80;96.20;;;;;;5110066;28;20303;-68
2023/08/19 08:01:29;;;;;;;;;;;22.80;96.20;;;;;;5110235;28;20586;-68
2023/08/19 08:03:54;;;;;;;;;;;22.80;96.20;;;;;;5109952;28;19990;-68
2023/08/19 08:06:20;;;;;;;;;;;22.80;96.20;;;;;;5098035;28;19943;-68
2023/08/19 08:08:45;;;;;;;;;;;22.80;96.20;;;;;;5118553;27;20325;-68
2023/08/19 08:11:11;;;;;;;;;;;22.80;96.20;;;;;;5120404;27;19920;-68
2023/08/19 08:13:36;;;;;;;;;;;22.80;96.10;;;;;;5089836;28;19919;-68
2023/08/19 08:16:02;;;;;;;;;;;22.90;96.20;;;;;;5104949;28;19983;-68
2023/08/19 08:18:28;;;;;;;;;;;22.90;96.20;;;;;;5109763;28;19920;-68
2023/08/19 08:20:53;;;;;;;;;;;22.90;96.20;;;;;;5110154;28;20589;-68
2023/08/19 08:23:19;;;;;;;;;;;22.90;96.10;;;;;;5109775;27;19951;-68
2023/08/19 08:25:45;;;;;;;;;;;22.90;96.10;;;;;;5109605;28;19933;-68
2023/08/19 08:28:11;;;;;;;;;;;23.00;96.10;;;;;;5109709;28;20416;-68
2023/08/19 08:30:36;;;;;;;;;;;23.00;96.10;;;;;;5104536;28;19988;-67
2023/08/19 08:33:02;;;;;;;;;;;23.00;96.00;;;;;;5109299;28;20682;-68
2023/08/19 08:35:27;;;;;;;;;;;23.00;96.00;;;;;;5105936;27;19983;-68
2023/08/19 08:37:53;;;;;;;;;;;23.10;96.00;;;;;;5100134;27;19915;-68
2023/08/19 08:40:18;;;;;;;;;;;23.10;95.90;;;;;;5106961;27;19980;-68
2023/08/19 08:42:45;;;;;;;;;;;23.20;95.90;;;;;;5114282;27;20421;-67
2023/08/19 08:45:11;;;;;;;;;;;23.20;95.90;;;;;;5105372;28;19912;-69
2023/08/19 08:47:38;;;;;;;;;;;23.20;95.80;;;;;;5104158;28;19997;-67
2023/08/19 08:50:04;;;;;;;;;;;23.30;96.30;;;;;;5106260;27;19919;-67
2023/08/19 08:52:30;;;;;;;;;;;23.40;96.10;;;;;;5106889;28;19919;-68
2023/08/19 08:54:57;;;;;;;;;;;23.40;97.00;;;;;;5349004;22;20044;-67
2023/08/19 08:57:22;;;;;;;;;;;23.60;97.30;;;;;;5013441;28;19987;-69
2023/08/19 08:59:48;;;;;;;;;;;23.60;97.30;;;;;;5028192;28;20353;-68
2023/08/19 09:02:14;;;;;;;;;;;23.80;97.10;;;;;;5014094;28;19921;-69
2023/08/19 09:04:40;;;;;;;;;;;23.90;96.90;;;;;;5013313;28;20580;-69
2023/08/19 09:07:08;;;;;;;;;;;24.00;97.30;;;;;;5027926;28;19948;-69
2023/08/19 09:09:35;;;;;;;;;;;24.20;97.60;;;;;;5027968;28;20035;-69
2023/08/19 09:12:02;;;;;;;;;;;24.30;97.40;;;;;;5027800;28;19960;-69
2023/08/19 09:14:32;;;;;;;;;;;24.30;97.50;;;;;;5018887;28;19991;-69
2023/08/19 09:16:57;;;;;;;;;;;24.50;97.20;;;;;;5008162;28;19916;-69
2023/08/19 09:19:23;;;;;;;;;;;24.50;97.10;;;;;;5023072;28;20020;-69
2023/08/19 09:21:49;;;;;;;;;;;24.60;97.10;;;;;;5027928;28;19961;-69
2023/08/19 09:24:16;;;;;;;;;;;24.70;96.80;;;;;;5043043;28;19956;-69
2023/08/19 09:26:41;;;;;;;;;;;24.70;96.80;;;;;;5023393;28;19953;-68
2023/08/19 09:29:07;;;;;;;;;;;24.80;96.90;;;;;;5015838;28;20334;-71
2023/08/19 09:31:32;;;;;;;;;;;24.90;97.30;;;;;;5006878;28;19917;-71
2023/08/19 09:33:58;;;;;;;;;;;25.00;97.20;;;;;;5026059;28;19917;-71
2023/08/19 09:36:24;;;;;;;;;;;25.00;97.00;;;;;;5027212;28;19933;-72
2023/08/19 09:38:53;;;;;;;;;;;25.00;97.10;;;;;;5042654;28;19913;-72
2023/08/19 09:41:18;;;;;;;;;;;25.10;97.30;;;;;;5027680;28;19959;-71
2023/08/19 09:43:46;;;;;;;;;;;25.10;97.30;;;;;;5027646;28;20010;-71
2023/08/19 09:46:13;;;;;;;;;;;25.20;97.40;;;;;;5027555;28;19917;-77
2023/08/19 09:48:39;;;;;;;;;;;25.20;97.20;;;;;;5028242;28;19920;-71
2023/08/19 09:51:08;;;;;;;;;;;25.30;97.50;;;;;;5027841;28;19928;-71
2023/08/19 09:53:36;;;;;;;;;;;25.40;97.30;;;;;;5028378;28;20071;-73
2023/08/19 09:56:02;;;;;;;;;;;25.50;97.30;;;;;;5027939;28;20269;-72
2023/08/19 09:58:27;;;;;;;;;;;25.60;96.90;;;;;;5021608;28;19924;-72
2023/08/19 10:00:53;;;;;;;;;;;25.60;96.90;;;;;;5023257;28;20503;-71
2023/08/19 10:03:19;;;;;;;;;;;25.70;96.70;;;;;;5023084;28;20701;-71
2023/08/19 10:05:46;;;;;;;;;;;25.70;96.80;;;;;;5026990;28;20344;-72
2023/08/19 10:08:19;;;;;;;;;;;25.80;96.80;;;;;;5026752;28;19910;-71
2023/08/19 10:10:45;;;;;;;;;;;25.90;96.90;;;;;;5028424;28;19917;-71
2023/08/19 10:13:12;;;;;;;;;;;25.90;96.70;;;;;;5023609;28;19917;-71
2023/08/19 10:15:40;;;;;;;;;;;26.00;96.80;;;;;;5041540;28;19967;-71
2023/08/19 10:18:09;;;;;;;;;;;26.00;96.60;;;;;;5027833;28;19986;-72
2023/08/19 10:20:35;;;;;;;;;;;26.00;96.60;;;;;;5027361;28;20445;-72
2023/08/19 10:23:03;;;;;;;;;;;26.00;96.60;;;;;;5027651;28;19913;-72
2023/08/19 10:25:29;;;;;;;;;;;26.10;96.60;;;;;;5027071;28;19916;-71
2023/08/19 10:28:11;;;;;;;;;;;26.10;96.50;;;;;;5026969;28;19917;-71
2023/08/19 10:30:36;;;;;;;;;;;26.20;96.50;;;;;;5044529;28;20369;-71
2023/08/19 10:33:22;;;;;;;;;;;26.20;96.60;;;;;;5031083;28;19936;-72
2023/08/19 10:36:06;;;;;;;;;;;26.30;96.70;;;;;;5046495;28;19909;-72
2023/08/19 10:39:00;;;;;;;;;;;26.30;96.70;;;;;;5030978;28;19995;-72
2023/08/19 10:41:26;;;;;;;;;;;26.40;96.70;;;;;;5030125;28;19999;-72
2023/08/19 10:43:54;;;;;;;;;;;26.50;96.70;;;;;;5031320;28;20016;-72
2023/08/19 10:46:23;;;;;;;;;;;26.60;96.60;;;;;;5030813;28;19932;-71
2023/08/19 10:48:49;;;;;;;;;;;26.60;96.20;;;;;;5029253;28;19944;-71
2023/08/19 10:51:18;;;;;;;;;;;26.70;95.70;;;;;;5029408;28;19917;-71
2023/08/19 10:54:04;;;;;;;;;;;26.80;95.70;;;;;;5046426;28;20603;-71
2023/08/19 10:56:30;;;;;;;;;;;26.90;95.60;;;;;;5030705;28;20528;-71
2023/08/19 10:58:55;;;;;;;;;;;27.00;95.20;;;;;;5030979;28;19913;-71
2023/08/19 11:01:21;;;;;;;;;;;27.10;95.00;;;;;;5030886;28;20003;-72
2023/08/19 11:03:46;;;;;;;;;;;27.20;94.70;;;;;;5046015;28;20272;-71
2023/08/19 11:06:12;;;;;;;;;;;27.30;94.50;;;;;;5019919;28;19913;-71
2023/08/19 11:08:44;;;;;;;;;;;27.30;94.30;;;;;;5030597;28;19913;-71
2023/08/19 11:11:14;;;;;;;;;;;27.40;94.40;;;;;;5030492;28;20012;-71
2023/08/19 11:13:40;;;;;;;;;;;27.40;94.60;;;;;;5031067;28;19921;-71
2023/08/19 11:16:05;;;;;;;;;;;27.40;94.20;;;;;;5043156;28;20438;-72
2023/08/19 11:18:31;;;;;;;;;;;27.50;94.40;;;;;;5010858;28;19935;-73
2023/08/19 11:20:57;;;;;;;;;;;27.50;94.30;;;;;;5010120;28;19917;-71
2023/08/19 11:23:27;;;;;;;;;;;27.60;94.40;;;;;;5027629;28;20898;-71
2023/08/19 11:25:53;;;;;;;;;;;27.70;93.90;;;;;;5030211;28;19917;-71
2023/08/19 11:28:18;;;;;;;;;;;27.80;93.70;;;;;;5029749;28;20388;-71
2023/08/19 11:30:44;;;;;;;;;;;27.90;93.70;;;;;;5017336;28;19918;-72
2023/08/19 11:33:09;;;;;;;;;;;28.00;93.60;;;;;;5009818;28;19920;-72
2023/08/19 11:35:42;;;;;;;;;;;28.00;93.60;;;;;;5023338;28;19913;-71
2023/08/19 11:38:17;;;;;;;;;;;27.90;93.10;;;;;;5021761;28;19949;-71
2023/08/19 11:40:43;;;;;;;;;;;27.90;93.60;;;;;;5014732;28;19913;-71
2023/08/19 11:43:09;;;;;;;;;;;27.90;93.50;;;;;;5012919;28;20032;-71
2023/08/19 11:45:38;;;;;;;;;;;27.80;92.90;;;;;;5026811;28;19957;-70
2023/08/19 11:48:04;;;;;;;;;;;27.80;93.30;;;;;;5029631;28;19913;-72
2023/08/19 11:50:34;;;;;;;;;;;27.80;93.50;;;;;;5029793;28;19964;-82
2023/08/19 11:53:03;;;;;;;;;;;27.70;93.50;;;;;;5021947;28;20545;-75
2023/08/19 11:55:28;;;;;;;;;;;27.70;94.20;;;;;;5008978;28;20328;-75
2023/08/19 11:57:54;;;;;;;;;;;27.60;94.50;;;;;;5027138;28;19968;-75
2023/08/19 12:00:19;;;;;;;;;;;27.60;94.60;;;;;;5030374;28;19913;-74
2023/08/19 12:02:46;;;;;;;;;;;27.50;94.60;;;;;;5029701;28;19952;-76
2023/08/19 12:05:20;;;;;;;;;;;27.40;94.40;;;;;;5030080;28;19913;-74
2023/08/19 12:07:45;;;;;;;;;;;27.40;94.70;;;;;;5012351;28;19944;-76
2023/08/19 12:10:11;;;;;;;;;;;27.30;94.80;;;;;;5010883;28;19921;-73
2023/08/19 12:12:36;;;;;;;;;;;27.30;94.70;;;;;;5010708;28;20284;-74
2023/08/19 12:15:02;;;;;;;;;;;27.30;94.90;;;;;;5025683;28;19927;-73
2023/08/19 12:17:27;;;;;;;;;;;27.30;94.80;;;;;;5009971;28;19945;-72
2023/08/19 12:19:54;;;;;;;;;;;27.30;94.80;;;;;;5017838;28;20349;-73
2023/08/19 12:22:19;;;;;;;;;;;27.30;94.60;;;;;;5029871;28;19917;-73
2023/08/19 12:24:45;;;;;;;;;;;27.40;94.50;;;;;;5029568;28;19916;-72
2023/08/19 12:27:10;;;;;;;;;;;27.50;94.30;;;;;;5033102;28;19914;-73
2023/08/19 12:29:36;;;;;;;;;;;27.60;94.30;;;;;;5012448;28;19921;-73
2023/08/19 12:32:02;;;;;;;;;;;27.60;94.10;;;;;;5021086;28;19968;-73
2023/08/19 12:34:28;;;;;;;;;;;27.60;94.20;;;;;;5028581;28;19917;-71
2023/08/19 12:36:53;;;;;;;;;;;27.70;94.30;;;;;;5016322;28;19921;-71
2023/08/19 12:39:19;;;;;;;;;;;27.70;94.40;;;;;;5008387;28;20000;-71
2023/08/19 12:41:47;;;;;;;;;;;27.70;94.40;;;;;;5013003;28;19948;-71
2023/08/19 12:44:13;;;;;;;;;;;27.80;94.40;;;;;;5028466;28;19909;-71
2023/08/19 12:46:45;;;;;;;;;;;27.80;94.40;;;;;;5028091;28;19909;-71
2023/08/19 12:49:11;;;;;;;;;;;27.80;94.30;;;;;;5028257;28;19936;-71
2023/08/19 12:51:36;;;;;;;;;;;27.80;94.30;;;;;;5028089;28;19991;-71
2023/08/19 12:54:02;;;;;;;;;;;27.80;94.40;;;;;;5027658;28;20008;-71
2023/08/19 12:56:27;;;;;;;;;;;27.80;94.30;;;;;;5027699;28;20000;-71
2023/08/19 12:58:53;;;;;;;;;;;27.80;94.40;;;;;;5028135;28;20023;-71
2023/08/19 13:01:19;;;;;;;;;;;27.70;94.30;;;;;;5027891;28;19917;-71
2023/08/19 13:03:44;;;;;;;;;;;27.70;94.40;;;;;;5027894;28;19921;-71
2023/08/19 13:06:10;;;;;;;;;;;27.70;94.50;;;;;;5016776;28;19983;-71
2023/08/19 13:08:38;;;;;;;;;;;27.70;94.50;;;;;;5028294;28;20655;-71
2023/08/19 13:11:03;;;;;;;;;;;27.70;94.50;;;;;;5026577;28;19917;-71
2023/08/19 13:13:28;;;;;;;;;;;27.70;94.50;;;;;;5008495;28;20536;-71
2023/08/19 13:15:54;;;;;;;;;;;27.70;94.50;;;;;;5017940;28;19917;-71
2023/08/19 13:18:20;;;;;;;;;;;27.70;94.60;;;;;;5043231;28;19920;-71
2023/08/19 13:20:45;;;;;;;;;;;27.60;94.50;;;;;;5019635;28;19928;-71
2023/08/19 13:23:11;;;;;;;;;;;27.60;94.60;;;;;;5019057;28;19920;-72
2023/08/19 13:25:36;;;;;;;;;;;27.50;94.70;;;;;;5022150;28;19913;-71
2023/08/19 13:28:02;;;;;;;;;;;27.50;94.70;;;;;;5023295;28;19909;-71
2023/08/19 13:30:27;;;;;;;;;;;27.60;94.80;;;;;;5022150;28;19929;-72
2023/08/19 13:32:55;;;;;;;;;;;27.50;94.80;;;;;;5016164;28;20324;-71
2023/08/19 13:35:21;;;;;;;;;;;27.50;94.70;;;;;;5019571;28;20023;-71
2023/08/19 13:37:46;;;;;;;;;;;27.50;94.80;;;;;;5026769;28;19960;-72
2023/08/19 13:40:12;;;;;;;;;;;27.40;94.80;;;;;;5026432;28;19913;-72
2023/08/19 13:42:37;;;;;;;;;;;27.40;94.90;;;;;;5022588;28;19917;-72
2023/08/19 13:45:04;;;;;;;;;;;27.30;94.90;;;;;;5007479;28;19956;-72
2023/08/19 13:47:30;;;;;;;;;;;27.30;95.00;;;;;;5026642;28;19913;-72
2023/08/19 13:49:55;;;;;;;;;;;27.30;95.00;;;;;;5021328;28;19924;-72
2023/08/19 13:52:38;;;;;;;;;;;27.20;95.00;;;;;;5011562;28;19917;-72
2023/08/19 13:55:04;;;;;;;;;;;27.20;95.10;;;;;;5016852;28;20339;-72
2023/08/19 13:57:29;;;;;;;;;;;27.20;95.10;;;;;;5035785;28;20487;-72
2023/08/19 13:59:55;;;;;;;;;;;27.10;95.10;;;;;;5026625;28;19913;-72
2023/08/19 14:02:20;;;;;;;;;;;27.10;95.20;;;;;;5026472;28;19920;-72
2023/08/19 14:04:46;;;;;;;;;;;27.00;95.20;;;;;;5025356;28;19909;-71
2023/08/19 14:07:11;;;;;;;;;;;27.00;95.20;;;;;;5026178;28;19909;-71
2023/08/19 14:09:37;;;;;;;;;;;26.90;95.20;;;;;;5025990;28;20035;-71
2023/08/19 14:12:02;;;;;;;;;;;26.90;95.20;;;;;;5026318;28;19921;-71